sensor_id;sensor_type;location;lat;lon;timestamp;temperature;humidity
56123;DHT22;42426;46.104;19.656;2022-09-11T00:01:14;486.40;1920.00
56123;DHT22;42426;46.104;19.656;2022-09-11T00:03:41;486.40;1945.60
56123;DHT22;42426;46.104;19.656;2022-09-11T00:06:10;486.40;1971.20
56123;DHT22;42426;46.104;19.656;2022-09-11T00:08:38;461.70;1945.60
56123;DHT22;42426;46.104;19.656;2022-09-11T00:11:10;461.70;1971.20
56123;DHT22;42426;46.104;19.656;2022-09-11T00:13:37;461.70;1971.20
56123;DHT22;42426;46.104;19.656;2022-09-11T00:16:05;461.60;1971.20
56123;DHT22;42426;46.104;19.656;2022-09-11T00:18:33;461.60;1971.20
56123;DHT22;42426;46.104;19.656;2022-09-11T00:21:03;461.60;1971.20
56123;DHT22;42426;46.104;19.656;2022-09-11T00:23:30;461.50;1971.20
56123;DHT22;42426;46.104;19.656;2022-09-11T00:26:00;461.50;1996.80
56123;DHT22;42426;46.104;19.656;2022-09-11T00:28:27;461.50;1971.20
56123;DHT22;42426;46.104;19.656;2022-09-11T00:31:04;461.50;1971.20
56123;DHT22;42426;46.104;19.656;2022-09-11T00:33:32;461.40;1996.80
56123;DHT22;42426;46.104;19.656;2022-09-11T00:36:06;461.30;1996.80
56123;DHT22;42426;46.104;19.656;2022-09-11T00:38:35;461.30;2022.40
56123;DHT22;42426;46.104;19.656;2022-09-11T00:41:04;461.30;1996.80
56123;DHT22;42426;46.104;19.656;2022-09-11T00:46:35;461.30;1996.80
56123;DHT22;42426;46.104;19.656;2022-09-11T00:49:24;461.20;2022.40
56123;DHT22;42426;46.104;19.656;2022-09-11T00:54:36;461.10;2022.40
56123;DHT22;42426;46.104;19.656;2022-09-11T00:57:05;461.10;2048.00
56123;DHT22;42426;46.104;19.656;2022-09-11T00:59:33;461.10;2048.00
56123;DHT22;42426;46.104;19.656;2022-09-11T01:02:00;461.10;2048.00
56123;DHT22;42426;46.104;19.656;2022-09-11T01:04:26;461.10;2048.00
56123;DHT22;42426;46.104;19.656;2022-09-11T01:06:55;461.10;2048.00
56123;DHT22;42426;46.104;19.656;2022-09-11T01:09:23;461.10;2048.00
56123;DHT22;42426;46.104;19.656;2022-09-11T01:15:01;461.10;2022.40
56123;DHT22;42426;46.104;19.656;2022-09-11T01:26:28;461.10;1996.80
56123;DHT22;42426;46.104;19.656;2022-09-11T01:29:01;461.10;2022.40
56123;DHT22;42426;46.104;19.656;2022-09-11T01:31:50;461.00;1971.20
56123;DHT22;42426;46.104;19.656;2022-09-11T01:34:28;461.00;2022.40
56123;DHT22;42426;46.104;19.656;2022-09-11T01:37:06;460.90;2022.40
56123;DHT22;42426;46.104;19.656;2022-09-11T01:39:39;461.00;2022.40
56123;DHT22;42426;46.104;19.656;2022-09-11T01:45:45;460.90;2022.40
56123;DHT22;42426;46.104;19.656;2022-09-11T01:48:16;460.90;2022.40
56123;DHT22;42426;46.104;19.656;2022-09-11T01:50:45;460.80;2022.40
56123;DHT22;42426;46.104;19.656;2022-09-11T01:53:41;460.80;2048.00
56123;DHT22;42426;46.104;19.656;2022-09-11T01:56:15;460.90;2048.00
56123;DHT22;42426;46.104;19.656;2022-09-11T01:58:46;460.90;2022.40
56123;DHT22;42426;46.104;19.656;2022-09-11T02:01:20;460.80;2048.00
56123;DHT22;42426;46.104;19.656;2022-09-11T02:04:23;460.90;2048.00
56123;DHT22;42426;46.104;19.656;2022-09-11T02:07:12;460.80;2022.40
56123;DHT22;42426;46.104;19.656;2022-09-11T02:09:59;460.80;2048.00
56123;DHT22;42426;46.104;19.656;2022-09-11T02:12:32;460.80;2048.00
56123;DHT22;42426;46.104;19.656;2022-09-11T02:15:01;460.80;2048.00
56123;DHT22;42426;46.104;19.656;2022-09-11T02:20:13;460.80;2073.60
56123;DHT22;42426;46.104;19.656;2022-09-11T02:22:39;460.80;2048.00
56123;DHT22;42426;46.104;19.656;2022-09-11T02:25:06;460.80;2048.00
56123;DHT22;42426;46.104;19.656;2022-09-11T02:27:32;460.80;2048.00
56123;DHT22;42426;46.104;19.656;2022-09-11T02:29:59;460.80;2048.00
56123;DHT22;42426;46.104;19.656;2022-09-11T02:32:26;436.10;2022.40
56123;DHT22;42426;46.104;19.656;2022-09-11T02:34:56;460.80;2048.00
56123;DHT22;42426;46.104;19.656;2022-09-11T02:37:33;436.10;2048.00
56123;DHT22;42426;46.104;19.656;2022-09-11T02:43:08;460.80;2073.60
56123;DHT22;42426;46.104;19.656;2022-09-11T02:51:40;461.00;2048.00
56123;DHT22;42426;46.104;19.656;2022-09-11T02:59:19;436.10;2048.00
56123;DHT22;42426;46.104;19.656;2022-09-11T03:01:52;436.10;2048.00
56123;DHT22;42426;46.104;19.656;2022-09-11T03:04:21;436.10;2022.40
56123;DHT22;42426;46.104;19.656;2022-09-11T03:06:49;436.10;2022.40
56123;DHT22;42426;46.104;19.656;2022-09-11T03:09:17;436.10;2022.40
56123;DHT22;42426;46.104;19.656;2022-09-11T03:11:44;436.00;2048.00
56123;DHT22;42426;46.104;19.656;2022-09-11T03:14:11;436.00;2022.40
56123;DHT22;42426;46.104;19.656;2022-09-11T03:16:37;436.10;2022.40
56123;DHT22;42426;46.104;19.656;2022-09-11T03:19:04;436.00;2022.40
56123;DHT22;42426;46.104;19.656;2022-09-11T03:21:30;436.10;2022.40
56123;DHT22;42426;46.104;19.656;2022-09-11T03:23:56;436.10;2022.40
56123;DHT22;42426;46.104;19.656;2022-09-11T03:26:22;436.00;2022.40
56123;DHT22;42426;46.104;19.656;2022-09-11T03:28:48;435.90;2048.00
56123;DHT22;42426;46.104;19.656;2022-09-11T03:31:15;436.00;2022.40
56123;DHT22;42426;46.104;19.656;2022-09-11T03:33:41;436.00;2022.40
56123;DHT22;42426;46.104;19.656;2022-09-11T03:36:07;436.00;2048.00
56123;DHT22;42426;46.104;19.656;2022-09-11T03:38:34;435.70;2048.00
56123;DHT22;42426;46.104;19.656;2022-09-11T03:40:59;435.90;2048.00
56123;DHT22;42426;46.104;19.656;2022-09-11T03:43:27;435.80;2048.00
56123;DHT22;42426;46.104;19.656;2022-09-11T03:45:53;435.80;2048.00
56123;DHT22;42426;46.104;19.656;2022-09-11T04:15:12;435.80;2073.60
56123;DHT22;42426;46.104;19.656;2022-09-11T04:17:38;435.60;2099.20
56123;DHT22;42426;46.104;19.656;2022-09-11T04:20:04;435.50;2099.20
56123;DHT22;42426;46.104;19.656;2022-09-11T04:22:30;435.50;2099.20
56123;DHT22;42426;46.104;19.656;2022-09-11T04:24:56;435.50;2073.60
56123;DHT22;42426;46.104;19.656;2022-09-11T04:27:23;435.50;2099.20
56123;DHT22;42426;46.104;19.656;2022-09-11T04:29:50;435.30;2099.20
56123;DHT22;42426;46.104;19.656;2022-09-11T04:32:16;435.30;2099.20
56123;DHT22;42426;46.104;19.656;2022-09-11T04:34:42;435.30;2124.80
56123;DHT22;42426;46.104;19.656;2022-09-11T04:37:08;435.30;2124.80
56123;DHT22;42426;46.104;19.656;2022-09-11T04:39:35;435.30;2124.80
56123;DHT22;42426;46.104;19.656;2022-09-11T04:42:01;435.20;2124.80
56123;DHT22;42426;46.104;19.656;2022-09-11T04:44:28;435.20;2124.80
56123;DHT22;42426;46.104;19.656;2022-09-11T04:46:55;435.20;2124.80
56123;DHT22;42426;46.104;19.656;2022-09-11T04:49:21;435.20;2124.80
56123;DHT22;42426;46.104;19.656;2022-09-11T04:51:48;435.20;2124.80
56123;DHT22;42426;46.104;19.656;2022-09-11T04:54:16;435.20;2150.40
56123;DHT22;42426;46.104;19.656;2022-09-11T04:56:43;435.20;2150.40
56123;DHT22;42426;46.104;19.656;2022-09-11T04:59:20;435.20;2124.80
56123;DHT22;42426;46.104;19.656;2022-09-11T05:01:47;435.20;2124.80
56123;DHT22;42426;46.104;19.656;2022-09-11T05:04:13;435.30;2150.40
56123;DHT22;42426;46.104;19.656;2022-09-11T05:06:43;435.30;2124.80
56123;DHT22;42426;46.104;19.656;2022-09-11T05:09:13;435.30;2124.80
56123;DHT22;42426;46.104;19.656;2022-09-11T05:11:39;435.40;2124.80
56123;DHT22;42426;46.104;19.656;2022-09-11T05:14:05;435.40;2099.20
56123;DHT22;42426;46.104;19.656;2022-09-11T05:16:31;435.50;2099.20
56123;DHT22;42426;46.104;19.656;2022-09-11T05:18:59;435.50;2099.20
56123;DHT22;42426;46.104;19.656;2022-09-11T05:21:27;435.60;2099.20
56123;DHT22;42426;46.104;19.656;2022-09-11T05:23:55;435.60;2099.20
56123;DHT22;42426;46.104;19.656;2022-09-11T05:26:30;435.60;2099.20
56123;DHT22;42426;46.104;19.656;2022-09-11T05:28:59;435.70;2073.60
56123;DHT22;42426;46.104;19.656;2022-09-11T05:31:25;435.70;2073.60
56123;DHT22;42426;46.104;19.656;2022-09-11T05:33:53;435.70;2048.00
56123;DHT22;42426;46.104;19.656;2022-09-11T05:36:23;435.70;2073.60
56123;DHT22;42426;46.104;19.656;2022-09-11T05:38:51;435.70;2073.60
56123;DHT22;42426;46.104;19.656;2022-09-11T05:41:18;435.80;2099.20
56123;DHT22;42426;46.104;19.656;2022-09-11T05:43:44;435.70;2073.60
56123;DHT22;42426;46.104;19.656;2022-09-11T05:46:13;435.80;2073.60
56123;DHT22;42426;46.104;19.656;2022-09-11T05:48:39;435.80;2073.60
56123;DHT22;42426;46.104;19.656;2022-09-11T05:51:08;435.90;2073.60
56123;DHT22;42426;46.104;19.656;2022-09-11T05:53:35;435.90;2073.60
56123;DHT22;42426;46.104;19.656;2022-09-11T05:56:13;435.90;2099.20
56123;DHT22;42426;46.104;19.656;2022-09-11T05:58:40;436.00;2073.60
56123;DHT22;42426;46.104;19.656;2022-09-11T06:01:13;436.00;2073.60
56123;DHT22;42426;46.104;19.656;2022-09-11T06:03:39;436.00;2073.60
56123;DHT22;42426;46.104;19.656;2022-09-11T06:06:08;436.00;2048.00
56123;DHT22;42426;46.104;19.656;2022-09-11T06:08:35;436.00;2048.00
56123;DHT22;42426;46.104;19.656;2022-09-11T06:11:03;436.00;2048.00
56123;DHT22;42426;46.104;19.656;2022-09-11T06:13:32;436.10;2048.00
56123;DHT22;42426;46.104;19.656;2022-09-11T06:15:59;436.10;2048.00
56123;DHT22;42426;46.104;19.656;2022-09-11T06:18:25;460.80;2099.20
56123;DHT22;42426;46.104;19.656;2022-09-11T06:20:56;436.10;2073.60
56123;DHT22;42426;46.104;19.656;2022-09-11T06:23:25;460.80;2099.20
56123;DHT22;42426;46.104;19.656;2022-09-11T06:25:51;460.90;2073.60
56123;DHT22;42426;46.104;19.656;2022-09-11T06:28:22;461.10;2099.20
56123;DHT22;42426;46.104;19.656;2022-09-11T06:30:49;461.30;2073.60
56123;DHT22;42426;46.104;19.656;2022-09-11T06:50:24;486.50;1920.00
56123;DHT22;42426;46.104;19.656;2022-09-11T06:52:55;486.40;1920.00
56123;DHT22;42426;46.104;19.656;2022-09-11T06:55:23;461.70;1945.60
56123;DHT22;42426;46.104;19.656;2022-09-11T06:57:49;486.40;1920.00
56123;DHT22;42426;46.104;19.656;2022-09-11T07:00:14;486.40;1945.60
56123;DHT22;42426;46.104;19.656;2022-09-11T07:02:42;486.40;1920.00
56123;DHT22;42426;46.104;19.656;2022-09-11T07:05:07;486.40;1920.00
56123;DHT22;42426;46.104;19.656;2022-09-11T07:07:35;486.50;1920.00
56123;DHT22;42426;46.104;19.656;2022-09-11T07:10:01;486.50;1920.00
56123;DHT22;42426;46.104;19.656;2022-09-11T07:12:30;486.50;1920.00
56123;DHT22;42426;46.104;19.656;2022-09-11T07:14:56;486.60;1920.00
56123;DHT22;42426;46.104;19.656;2022-09-11T07:17:22;486.60;1920.00
56123;DHT22;42426;46.104;19.656;2022-09-11T07:19:48;486.70;1920.00
56123;DHT22;42426;46.104;19.656;2022-09-11T07:22:14;486.70;1945.60
56123;DHT22;42426;46.104;19.656;2022-09-11T07:24:40;486.70;1920.00
56123;DHT22;42426;46.104;19.656;2022-09-11T07:27:05;487.00;1894.40
56123;DHT22;42426;46.104;19.656;2022-09-11T07:46:38;512.20;1817.60
56123;DHT22;42426;46.104;19.656;2022-09-11T07:49:05;487.30;1843.20
56123;DHT22;42426;46.104;19.656;2022-09-11T07:51:36;487.20;1868.80
56123;DHT22;42426;46.104;19.656;2022-09-11T07:54:02;487.30;1868.80
56123;DHT22;42426;46.104;19.656;2022-09-11T07:56:30;487.30;1817.60
56123;DHT22;42426;46.104;19.656;2022-09-11T07:58:56;487.30;1843.20
56123;DHT22;42426;46.104;19.656;2022-09-11T08:01:27;512.10;1843.20
56123;DHT22;42426;46.104;19.656;2022-09-11T08:04:02;512.10;1817.60
56123;DHT22;42426;46.104;19.656;2022-09-11T08:06:30;512.10;1817.60
56123;DHT22;42426;46.104;19.656;2022-09-11T08:09:00;512.10;1817.60
56123;DHT22;42426;46.104;19.656;2022-09-11T08:11:28;512.20;1792.00
56123;DHT22;42426;46.104;19.656;2022-09-11T08:13:54;512.20;1817.60
56123;DHT22;42426;46.104;19.656;2022-09-11T08:16:23;512.20;1817.60
56123;DHT22;42426;46.104;19.656;2022-09-11T08:18:49;512.30;1843.20
56123;DHT22;42426;46.104;19.656;2022-09-11T08:21:17;512.30;1817.60
56123;DHT22;42426;46.104;19.656;2022-09-11T08:23:43;512.30;1817.60
56123;DHT22;42426;46.104;19.656;2022-09-11T08:26:27;512.30;1817.60
56123;DHT22;42426;46.104;19.656;2022-09-11T08:28:56;512.40;1817.60
56123;DHT22;42426;46.104;19.656;2022-09-11T08:31:24;512.40;1843.20
56123;DHT22;42426;46.104;19.656;2022-09-11T08:33:53;512.50;1817.60
56123;DHT22;42426;46.104;19.656;2022-09-11T08:36:19;512.50;1792.00
56123;DHT22;42426;46.104;19.656;2022-09-11T08:38:46;512.60;1817.60
56123;DHT22;42426;46.104;19.656;2022-09-11T08:44:21;512.80;1792.00
56123;DHT22;42426;46.104;19.656;2022-09-11T08:46:56;512.80;1792.00
56123;DHT22;42426;46.104;19.656;2022-09-11T08:49:52;512.90;1766.40
56123;DHT22;42426;46.104;19.656;2022-09-11T12:26:20;537.90;2022.40
56123;DHT22;42426;46.104;19.656;2022-09-11T12:28:47;537.70;2048.00
56123;DHT22;42426;46.104;19.656;2022-09-11T12:31:16;537.60;2073.60
56123;DHT22;42426;46.104;19.656;2022-09-11T12:36:28;512.70;2124.80
56123;DHT22;42426;46.104;19.656;2022-09-11T12:39:24;512.60;2099.20
56123;DHT22;42426;46.104;19.656;2022-09-11T12:41:52;512.50;2073.60
56123;DHT22;42426;46.104;19.656;2022-09-11T12:44:31;512.60;2099.20
56123;DHT22;42426;46.104;19.656;2022-09-11T12:55:41;537.80;2048.00
56123;DHT22;42426;46.104;19.656;2022-09-11T13:00:48;537.90;2099.20
56123;DHT22;42426;46.104;19.656;2022-09-11T13:03:23;538.00;2073.60
56123;DHT22;42426;46.104;19.656;2022-09-11T13:06:09;538.10;2073.60
56123;DHT22;42426;46.104;19.656;2022-09-11T13:08:51;538.10;2073.60
56123;DHT22;42426;46.104;19.656;2022-09-11T13:11:41;538.20;2022.40
56123;DHT22;42426;46.104;19.656;2022-09-11T13:17:01;538.40;1996.80
56123;DHT22;42426;46.104;19.656;2022-09-11T13:19:33;538.40;1996.80
56123;DHT22;42426;46.104;19.656;2022-09-11T13:22:00;538.50;1945.60
56123;DHT22;42426;46.104;19.656;2022-09-11T13:24:31;563.20;1843.20
56123;DHT22;42426;46.104;19.656;2022-09-11T13:27:07;563.20;1868.80
56123;DHT22;42426;46.104;19.656;2022-09-11T13:29:37;563.30;1894.40
56123;DHT22;42426;46.104;19.656;2022-09-11T13:32:13;563.50;1792.00
56123;DHT22;42426;46.104;19.656;2022-09-11T13:34:53;563.50;1817.60
56123;DHT22;42426;46.104;19.656;2022-09-11T13:37:35;563.50;1843.20
56123;DHT22;42426;46.104;19.656;2022-09-11T13:40:06;563.60;1868.80
56123;DHT22;42426;46.104;19.656;2022-09-11T13:45:06;564.00;1817.60
56123;DHT22;42426;46.104;19.656;2022-09-11T13:47:36;564.00;1817.60
56123;DHT22;42426;46.104;19.656;2022-09-11T14:29:52;589.20;1612.80
56123;DHT22;42426;46.104;19.656;2022-09-11T14:32:34;589.20;1612.80
56123;DHT22;42426;46.104;19.656;2022-09-11T14:35:02;589.20;1561.60
56123;DHT22;42426;46.104;19.656;2022-09-11T14:37:43;589.30;1561.60
56123;DHT22;42426;46.104;19.656;2022-09-11T14:40:14;589.40;1587.20
56123;DHT22;42426;46.104;19.656;2022-09-11T14:42:45;589.40;1587.20
56123;DHT22;42426;46.104;19.656;2022-09-11T14:45:20;589.30;1510.40
56123;DHT22;42426;46.104;19.656;2022-09-11T14:47:50;589.20;1612.80
56123;DHT22;42426;46.104;19.656;2022-09-11T14:50:16;589.40;1459.20
56123;DHT22;42426;46.104;19.656;2022-09-11T14:52:53;589.40;1484.80
56123;DHT22;42426;46.104;19.656;2022-09-11T14:55:19;589.30;1536.00
56123;DHT22;42426;46.104;19.656;2022-09-11T14:57:47;589.20;1408.00
56123;DHT22;42426;46.104;19.656;2022-09-11T15:00:40;589.40;1484.80
56123;DHT22;42426;46.104;19.656;2022-09-11T15:03:14;589.30;1484.80
56123;DHT22;42426;46.104;19.656;2022-09-11T15:05:42;589.40;1510.40
56123;DHT22;42426;46.104;19.656;2022-09-11T15:08:13;589.60;1510.40
56123;DHT22;42426;46.104;19.656;2022-09-11T17:36:36;512.00;1920.00
56123;DHT22;42426;46.104;19.656;2022-09-11T17:39:04;487.30;1920.00
56123;DHT22;42426;46.104;19.656;2022-09-11T17:41:30;487.30;1945.60
56123;DHT22;42426;46.104;19.656;2022-09-11T17:43:56;487.20;1945.60
56123;DHT22;42426;46.104;19.656;2022-09-11T17:46:23;487.30;1920.00
56123;DHT22;42426;46.104;19.656;2022-09-11T17:48:49;487.30;1945.60
56123;DHT22;42426;46.104;19.656;2022-09-11T17:51:18;487.30;1945.60
56123;DHT22;42426;46.104;19.656;2022-09-11T17:53:49;487.30;1945.60
56123;DHT22;42426;46.104;19.656;2022-09-11T17:56:19;487.30;1945.60
56123;DHT22;42426;46.104;19.656;2022-09-11T17:58:49;487.30;1971.20
56123;DHT22;42426;46.104;19.656;2022-09-11T18:01:15;487.30;1996.80
56123;DHT22;42426;46.104;19.656;2022-09-11T18:03:41;487.30;1996.80
56123;DHT22;42426;46.104;19.656;2022-09-11T18:06:35;487.30;1996.80
56123;DHT22;42426;46.104;19.656;2022-09-11T18:09:06;487.30;1996.80
56123;DHT22;42426;46.104;19.656;2022-09-11T18:11:51;487.20;1996.80
56123;DHT22;42426;46.104;19.656;2022-09-11T18:14:19;487.20;1971.20
56123;DHT22;42426;46.104;19.656;2022-09-11T18:16:49;487.20;1971.20
56123;DHT22;42426;46.104;19.656;2022-09-11T18:19:17;487.10;1996.80
56123;DHT22;42426;46.104;19.656;2022-09-11T18:21:45;487.00;1996.80
56123;DHT22;42426;46.104;19.656;2022-09-11T18:24:12;487.00;1996.80
56123;DHT22;42426;46.104;19.656;2022-09-11T18:29:40;487.00;1996.80
56123;DHT22;42426;46.104;19.656;2022-09-11T18:32:06;487.00;1996.80
56123;DHT22;42426;46.104;19.656;2022-09-11T18:35:04;486.80;1996.80
56123;DHT22;42426;46.104;19.656;2022-09-11T18:37:35;486.80;2022.40
56123;DHT22;42426;46.104;19.656;2022-09-11T18:40:02;486.70;2022.40
56123;DHT22;42426;46.104;19.656;2022-09-11T18:42:28;486.70;2048.00
56123;DHT22;42426;46.104;19.656;2022-09-11T18:44:54;486.70;2022.40
56123;DHT22;42426;46.104;19.656;2022-09-11T18:47:20;486.70;2022.40
56123;DHT22;42426;46.104;19.656;2022-09-11T18:49:48;486.60;2048.00
56123;DHT22;42426;46.104;19.656;2022-09-11T18:52:19;486.60;2022.40
56123;DHT22;42426;46.104;19.656;2022-09-11T18:59:38;486.50;2048.00
56123;DHT22;42426;46.104;19.656;2022-09-11T19:02:04;486.40;2073.60
56123;DHT22;42426;46.104;19.656;2022-09-11T19:04:30;486.40;2073.60
56123;DHT22;42426;46.104;19.656;2022-09-11T19:06:58;486.40;2048.00
56123;DHT22;42426;46.104;19.656;2022-09-11T19:09:24;461.70;2073.60
56123;DHT22;42426;46.104;19.656;2022-09-11T19:11:52;461.70;2099.20
56123;DHT22;42426;46.104;19.656;2022-09-11T19:14:18;461.70;2099.20
56123;DHT22;42426;46.104;19.656;2022-09-11T19:16:44;486.40;2099.20
56123;DHT22;42426;46.104;19.656;2022-09-11T19:19:10;486.40;2073.60
56123;DHT22;42426;46.104;19.656;2022-09-11T19:21:37;486.40;2073.60
56123;DHT22;42426;46.104;19.656;2022-09-11T19:24:03;461.70;2073.60
56123;DHT22;42426;46.104;19.656;2022-09-11T19:26:35;461.60;2073.60
56123;DHT22;42426;46.104;19.656;2022-09-11T19:29:02;461.60;2099.20
56123;DHT22;42426;46.104;19.656;2022-09-11T19:31:29;461.60;2099.20
56123;DHT22;42426;46.104;19.656;2022-09-11T19:33:58;461.60;2099.20
56123;DHT22;42426;46.104;19.656;2022-09-11T19:36:29;461.70;2099.20
56123;DHT22;42426;46.104;19.656;2022-09-11T19:38:55;461.60;2073.60
56123;DHT22;42426;46.104;19.656;2022-09-11T19:41:28;461.60;2099.20
56123;DHT22;42426;46.104;19.656;2022-09-11T19:43:57;461.60;2073.60
56123;DHT22;42426;46.104;19.656;2022-09-11T19:46:25;461.60;2073.60
56123;DHT22;42426;46.104;19.656;2022-09-11T19:48:53;461.50;2073.60
56123;DHT22;42426;46.104;19.656;2022-09-11T19:51:28;461.50;2073.60
56123;DHT22;42426;46.104;19.656;2022-09-11T19:53:55;461.50;2073.60
56123;DHT22;42426;46.104;19.656;2022-09-11T19:56:22;461.50;2073.60
56123;DHT22;42426;46.104;19.656;2022-09-11T19:58:48;461.50;2073.60
56123;DHT22;42426;46.104;19.656;2022-09-11T20:01:17;461.30;2073.60
56123;DHT22;42426;46.104;19.656;2022-09-11T20:03:44;461.40;2099.20
56123;DHT22;42426;46.104;19.656;2022-09-11T20:11:05;461.50;2048.00
56123;DHT22;42426;46.104;19.656;2022-09-11T20:13:33;461.30;2073.60
56123;DHT22;42426;46.104;19.656;2022-09-11T20:16:10;461.30;2099.20
56123;DHT22;42426;46.104;19.656;2022-09-11T20:18:36;461.20;2099.20
56123;DHT22;42426;46.104;19.656;2022-09-11T20:21:06;461.20;2099.20
56123;DHT22;42426;46.104;19.656;2022-09-11T20:23:33;461.20;2099.20
56123;DHT22;42426;46.104;19.656;2022-09-11T20:26:23;461.30;2099.20
56123;DHT22;42426;46.104;19.656;2022-09-11T20:29:11;461.40;2099.20
56123;DHT22;42426;46.104;19.656;2022-09-11T20:31:42;461.20;2099.20
56123;DHT22;42426;46.104;19.656;2022-09-11T20:34:10;461.20;2099.20
56123;DHT22;42426;46.104;19.656;2022-09-11T20:36:35;461.20;2099.20
56123;DHT22;42426;46.104;19.656;2022-09-11T20:39:02;461.20;2099.20
56123;DHT22;42426;46.104;19.656;2022-09-11T20:41:29;460.90;2099.20
56123;DHT22;42426;46.104;19.656;2022-09-11T20:43:58;461.20;2124.80
56123;DHT22;42426;46.104;19.656;2022-09-11T20:46:26;461.10;2099.20
56123;DHT22;42426;46.104;19.656;2022-09-11T20:48:52;461.10;2099.20
56123;DHT22;42426;46.104;19.656;2022-09-11T20:51:20;461.10;2099.20
56123;DHT22;42426;46.104;19.656;2022-09-11T20:53:46;461.00;2124.80
56123;DHT22;42426;46.104;19.656;2022-09-11T20:56:15;461.00;2099.20
56123;DHT22;42426;46.104;19.656;2022-09-11T20:58:43;460.90;2099.20
56123;DHT22;42426;46.104;19.656;2022-09-11T21:01:14;460.90;2124.80
56123;DHT22;42426;46.104;19.656;2022-09-11T21:03:48;460.90;2124.80
56123;DHT22;42426;46.104;19.656;2022-09-11T21:06:14;460.90;2099.20
56123;DHT22;42426;46.104;19.656;2022-09-11T21:08:41;460.80;2099.20
56123;DHT22;42426;46.104;19.656;2022-09-11T21:11:09;460.80;2150.40
56123;DHT22;42426;46.104;19.656;2022-09-11T21:13:36;460.80;2124.80
56123;DHT22;42426;46.104;19.656;2022-09-11T21:16:09;460.80;2150.40
56123;DHT22;42426;46.104;19.656;2022-09-11T21:18:52;460.80;2150.40
56123;DHT22;42426;46.104;19.656;2022-09-11T21:21:20;460.80;2150.40
56123;DHT22;42426;46.104;19.656;2022-09-11T21:23:48;460.80;2150.40
56123;DHT22;42426;46.104;19.656;2022-09-11T21:26:16;460.80;2150.40
56123;DHT22;42426;46.104;19.656;2022-09-11T21:28:42;460.80;2150.40
56123;DHT22;42426;46.104;19.656;2022-09-11T21:31:08;460.80;2124.80
56123;DHT22;42426;46.104;19.656;2022-09-11T21:33:35;436.10;2124.80
56123;DHT22;42426;46.104;19.656;2022-09-11T21:36:02;436.00;2124.80
56123;DHT22;42426;46.104;19.656;2022-09-11T21:38:28;435.90;2124.80
56123;DHT22;42426;46.104;19.656;2022-09-11T21:40:55;435.90;2124.80
56123;DHT22;42426;46.104;19.656;2022-09-11T21:43:36;435.90;2150.40
56123;DHT22;42426;46.104;19.656;2022-09-11T21:46:03;436.00;2124.80
56123;DHT22;42426;46.104;19.656;2022-09-11T21:48:35;435.90;2150.40
56123;DHT22;42426;46.104;19.656;2022-09-11T21:51:15;435.90;2124.80
